首页
METAR-TAF:

METAR-TAF

机场 :

尼诺伊·阿基诺国际机场

马尼拉, 菲律宾

纬度: 14-31N, 经度: 121-00E, 海拔: 14米

当前天气观测

该预报发布于32分钟前的04:00 UTC
风速4节,风向西,在西南北转西北之间变化
温度 29°C
湿度 70%
气压 1015 hPa
能見度: 9000
散云层高于2300英尺
多云层高于9000英尺

METAR: RPLL 190400Z 26004KT 220V340 9000 SCT023 BKN090 29/23 Q1015 NOSIG RMK A2997

时间: 12:32 (04:32 UTC)

预报

该预报发布于5小时和32分钟前的23:00 UTC
预报有效从19日的 00点(UTC)到 20日的 06点(UTC)
风速6节,风向东转东南
能见度10公里或以上
少量云层高于2500英尺
散云层高于10000英尺
短暂存在
从 19日的 00点(UTC)到 19日的 06点(UTC)
风速8节,风向东南
少量云层高于2300英尺
多云层高于10000英尺
短暂存在
从 19日的 06点(UTC)到 19日的 12点(UTC)
风速12节,风向东转东南
散云层高于2300英尺
多云层高于9000英尺

TAF: RPLL 182300Z 1900/2006 12006KT 9999 FEW025 SCT100 TX31/1907Z TN25/1922Z TEMPO 1900/1906 14008KT FEW023 BKN100 TEMPO 1906/1912 11012KT SCT023 BKN090

超过4000个机场的气象观测和天气预报(METAR&TAF报告)。

可查询的气象台以黄色和红色小点在地图上表示。

将鼠标移到小点上方,可查看气象台名称。

然后点击查看天气观测和预报。

如需切换地图:点击带黑十字的绿色按钮放大地图;点击带横线的绿色按钮缩小地图;或者点击绿色箭头查看邻近地区的地图。


METAR-TAF: